Ben-my-chree — MXLG6 — position and weather

sailwx.info

Track history (hours):
 
Tides and Currents Weather Stations Pressure Air Temp Water Temp Dewpoint Dewpoint Depression Visibility Wind Speed Wind Dir Waves Ship Positions

Ben-my-chree

Operator: The Isle of Man Steam Packet Co Ltd

Last reported at 2017-Jun-24 19:54 UTC. Time now 2017-Jun-25 08:40 UTC.
Position N 54°10' W 004°45'.

Length 120 m; draft 5 m.

Type: Passenger vessel. MMSI: 234983000.

Date/timePositionNaut miles runAvg speedWind from/ knotsBaromVisibWave heightAir tempDewpointWater temp
2017-Jun-24 19:54N 54°10' W 004°45'813.2
2017-Jun-24 19:17N 54°03' W 004°50'514.9
2017-Jun-24 18:55N 54°03' W 004°41'612.5
2017-Jun-24 18:27N 54°06' W 004°32'23 7.2
2017-Jun-24 15:16N 54°01' W 003°54'2417.9
2017-Jun-24 13:55N 53°56' W 003°14'7 2.0
2017-Jun-24 10:30N 53°58' W 003°03'1018.7
2017-Jun-24 09:57N 53°56' W 003°20'818.6
2017-Jun-24 09:30N 53°57' W 003°34'3 0.4
2017-Jun-24 02:19N 53°56' W 003°30'1018.6
2017-Jun-24 01:46N 53°56' W 003°13'519.6
2017-Jun-24 01:30N 53°58' W 003°04'0 0.1
2017-Jun-23 22:13N 53°58' W 003°04'2 8.3
2017-Jun-23 21:58N 53°57' W 003°07'815.7
2017-Jun-23 21:29N 53°56' W 003°20'918.1
2017-Jun-23 21:00N 53°57' W 003°34'33 7.4
2017-Jun-23 16:32N 54°09' W 004°26'317.3
2017-Jun-23 16:24N 54°08' W 004°22'1817.5
2017-Jun-23 15:24N 54°01' W 003°54'1517.5
2017-Jun-23 14:30N 53°56' W 003°30'14 3.5
2017-Jun-23 10:37N 53°56' W 003°07'217.5
2017-Jun-23 10:30N 53°56' W 003°10'917.2
2017-Jun-23 10:00N 53°56' W 003°25'917.5
2017-Jun-23 09:30N 53°58' W 003°39'27 5.1
2017-Jun-23 04:14N 54°08' W 004°22'1817.8
2017-Jun-23 03:13N 54°01' W 003°53'1518.0
2017-Jun-23 02:22N 53°56' W 003°29'1018.3
2017-Jun-23 01:48N 53°56' W 003°12'720.0
2017-Jun-23 01:28N 53°59' W 003°01'1 0.4
2017-Jun-22 21:25N 53°58' W 003°03'818.7
2017-Jun-22 20:59N 53°56' W 003°17'918.9
2017-Jun-22 20:30N 53°56' W 003°32'918.8
2017-Jun-22 20:00N 53°60' W 003°47'25 7.9
2017-Jun-22 16:46N 54°09' W 004°28'515.3
2017-Jun-22 16:27N 54°08' W 004°20'917.9
2017-Jun-22 15:57N 54°04' W 004°06'817.9
2017-Jun-22 15:30N 54°01' W 003°54'917.9
2017-Jun-22 14:59N 53°58' W 003°38'817.8
2017-Jun-22 14:30N 53°56' W 003°25'12 3.2
2017-Jun-22 10:37N 53°58' W 003°04'216.9
2017-Jun-22 10:29N 53°57' W 003°07'916.9
2017-Jun-22 09:58N 53°55' W 003°22'817.3
2017-Jun-22 09:30N 53°57' W 003°35'32 6.3
2017-Jun-22 04:26N 54°09' W 004°26'3417.6
2017-Jun-22 02:30N 53°55' W 003°34'1117.5
2017-Jun-22 01:53N 53°55' W 003°15'718.9
2017-Jun-22 01:30N 53°58' W 003°04'3 0.7
2017-Jun-21 21:23N 53°56' W 003°08'717.6
2017-Jun-21 21:00N 53°55' W 003°19'41 7.9
2017-Jun-21 15:52N 54°09' W 004°24'1418.2
2017-Jun-21 15:07N 54°03' W 004°03'618.5
2017-Jun-21 14:48N 54°01' W 003°53'1118.7
2017-Jun-21 14:13N 53°57' W 003°36'1518.5
2017-Jun-21 13:25N 53°56' W 003°11'11 5.0
2017-Jun-21 11:12N 54°02' W 002°55'713.7
2017-Jun-21 10:43N 53°58' W 003°04'315.9
2017-Jun-21 10:30N 53°56' W 003°09'916.6
2017-Jun-21 09:59N 53°55' W 003°24'816.3
2017-Jun-21 09:30N 53°57' W 003°37'12 1.8
2017-Jun-21 02:55N 54°02' W 003°56'1715.9
2017-Jun-21 01:52N 53°56' W 003°29'1015.5
2017-Jun-21 01:13N 53°56' W 003°12'315.6
2017-Jun-21 01:00N 53°57' W 003°07'8 3.0
2017-Jun-20 22:07N 54°02' W 002°55'714.4
2017-Jun-20 21:37N 53°57' W 003°05'216.0
2017-Jun-20 21:30N 53°56' W 003°08'916.3
2017-Jun-20 20:59N 53°55' W 003°22'816.2
2017-Jun-20 20:30N 53°57' W 003°35'816.9
2017-Jun-20 20:00N 53°60' W 003°48'24 5.7
2017-Jun-20 15:43N 54°09' W 004°26'1617.6
2017-Jun-20 14:47N 54°03' W 004°00'1417.7
2017-Jun-20 13:59N 53°58' W 003°38'917.9
2017-Jun-20 13:30N 53°55' W 003°24'918.4
2017-Jun-20 13:00N 53°56' W 003°08'917.8
2017-Jun-20 12:30N 54°02' W 002°56'1 0.6
2017-Jun-20 11:16N 54°02' W 002°55'0 0.0
2017-Jun-20 10:58N 54°02' W 002°55'7 9.2
2017-Jun-20 10:15N 53°58' W 003°04'416.0
2017-Jun-20 10:01N 53°56' W 003°09'816.6
2017-Jun-20 09:30N 53°55' W 003°23'816.7
2017-Jun-20 09:00N 53°57' W 003°37'817.1
2017-Jun-20 08:30N 54°00' W 003°50'917.3
2017-Jun-20 08:00N 54°04' W 004°04'15 6.3
2017-Jun-20 05:37N 54°09' W 004°28'1 6.2
2017-Jun-20 05:29N 54°09' W 004°27'816.5
2017-Jun-20 04:59N 54°07' W 004°14'916.4
2017-Jun-20 04:27N 54°03' W 003°60'916.6
2017-Jun-20 03:52N 53°59' W 003°45'816.7
2017-Jun-20 03:23N 53°56' W 003°32'716.8
2017-Jun-20 03:00N 53°56' W 003°21'916.8
2017-Jun-20 02:29N 53°57' W 003°06'816.8
2017-Jun-20 02:00N 54°02' W 002°56'0 0.1
2017-Jun-19 22:38N 54°02' W 002°55'1 5.2
2017-Jun-19 22:30N 54°02' W 002°56'815.1
2017-Jun-19 22:00N 53°57' W 003°06'816.5
2017-Jun-19 21:30N 53°55' W 003°19'816.4
2017-Jun-19 21:00N 53°56' W 003°33'917.1
2017-Jun-19 20:30N 53°60' W 003°46'917.3
2017-Jun-19 20:00N 54°02' W 004°01'15 4.6
2017-Jun-19 16:47N 54°09' W 004°24'517.8
2017-Jun-19 16:30N 54°07' W 004°16'1417.2
2017-Jun-19 15:43N 54°01' W 003°55'917.0
2017-Jun-19 15:13N 53°58' W 003°41'417.1
2017-Jun-19 15:00N 53°57' W 003°35'1716.5
2017-Jun-19 13:57N 53°57' W 003°06'816.4
2017-Jun-19 13:29N 54°02' W 002°56'0 0.2
2017-Jun-19 11:15N 54°02' W 002°55'714.2
2017-Jun-19 10:46N 53°58' W 003°04'516.2
2017-Jun-19 10:28N 53°56' W 003°12'817.0
2017-Jun-19 10:00N 53°55' W 003°25'816.7
2017-Jun-19 09:30N 53°58' W 003°39'917.1
2017-Jun-19 09:00N 54°00' W 003°53'816.9
2017-Jun-19 08:30N 54°03' W 004°06'14 6.4
2017-Jun-19 06:17N 54°09' W 004°28'0 0.0
2017-Jun-19 05:59N 54°09' W 004°28'0 0.0
2017-Jun-19 05:29N 54°09' W 004°28'0 0.0
2017-Jun-19 04:59N 54°09' W 004°28'4 7.4
2017-Jun-19 04:24N 54°08' W 004°21'917.5
2017-Jun-19 03:53N 54°04' W 004°07'717.3
2017-Jun-19 03:30N 54°02' W 003°56'1417.1
2017-Jun-19 02:41N 53°57' W 003°34'317.0
2017-Jun-19 02:30N 53°56' W 003°29'1017.0
2017-Jun-19 01:57N 53°56' W 003°13'817.5
2017-Jun-19 01:31N 53°59' W 003°01'5 1.7
2017-Jun-18 22:35N 54°02' W 002°55'0 0.0
2017-Jun-18 22:30N 54°02' W 002°55'811.6
2017-Jun-18 21:48N 53°57' W 003°06'516.2
2017-Jun-18 21:30N 53°56' W 003°14'816.8
2017-Jun-18 21:00N 53°56' W 003°28'816.8
2017-Jun-18 20:30N 53°59' W 003°41'916.9
2017-Jun-18 20:00N 54°01' W 003°55'816.8
2017-Jun-18 19:30N 54°05' W 004°08'816.8
2017-Jun-18 19:01N 54°07' W 004°22'4 6.9
2017-Jun-18 18:24N 54°09' W 004°28'0 0.0
2017-Jun-18 18:00N 54°09' W 004°28'0 0.2
2017-Jun-18 17:30N 54°09' W 004°28'816.0
2017-Jun-18 17:00N 54°07' W 004°15'917.6
2017-Jun-18 16:30N 54°03' W 004°01'917.1
2017-Jun-18 16:00N 54°00' W 003°48'917.2
2017-Jun-18 15:30N 53°57' W 003°34'816.5
2017-Jun-18 15:00N 53°56' W 003°20'1615.2
2017-Jun-18 13:58N 54°02' W 002°55'0 0.0
2017-Jun-18 11:17N 54°02' W 002°55'312.3
2017-Jun-18 11:00N 53°60' W 002°60'816.4
2017-Jun-18 10:30N 53°56' W 003°12'917.1
2017-Jun-18 10:00N 53°56' W 003°26'816.8
2017-Jun-18 09:30N 53°58' W 003°40'816.9
2017-Jun-18 09:00N 54°01' W 003°53'816.4
2017-Jun-18 08:30N 54°04' W 004°06'5 1.2
2017-Jun-18 04:09N 54°06' W 004°15'317.6
2017-Jun-18 03:58N 54°05' W 004°10'917.4
2017-Jun-18 03:27N 54°02' W 003°55'1117.0
2017-Jun-18 02:49N 53°58' W 003°38'516.8
2017-Jun-18 02:30N 53°56' W 003°30'1016.6
2017-Jun-18 01:53N 53°56' W 003°13'616.9
2017-Jun-18 01:30N 53°58' W 003°03'6 2.1
2017-Jun-17 22:37N 54°02' W 002°55'0 3.2
2017-Jun-17 22:28N 54°02' W 002°56'916.1
2017-Jun-17 21:56N 53°56' W 003°07'717.1
2017-Jun-17 21:30N 53°55' W 003°19'816.3
2017-Jun-17 21:00N 53°56' W 003°33'917.0
2017-Jun-17 20:30N 53°59' W 003°46'817.0
2017-Jun-17 20:00N 54°02' W 003°60'816.8
2017-Jun-17 19:30N 54°06' W 004°13'917.3
2017-Jun-17 19:00N 54°09' W 004°27'1 1.1
2017-Jun-17 18:13N 54°09' W 004°28'0 0.0
2017-Jun-17 17:58N 54°09' W 004°28'0 0.0
2017-Jun-17 17:28N 54°09' W 004°28'0 0.0
2017-Jun-17 16:58N 54°09' W 004°28'710.9
2017-Jun-17 16:18N 54°07' W 004°16'517.6
2017-Jun-17 16:00N 54°05' W 004°08'917.2
2017-Jun-17 15:29N 54°01' W 003°54'1116.9
2017-Jun-17 14:51N 53°58' W 003°37'616.5
2017-Jun-17 14:30N 53°56' W 003°28'1616.2
2017-Jun-17 13:31N 53°59' W 003°01'4 1.5
2017-Jun-17 10:37N 53°56' W 003°07'216.3
2017-Jun-17 10:30N 53°56' W 003°10'917.6
2017-Jun-17 10:00N 53°56' W 003°25'817.1
2017-Jun-17 09:30N 53°58' W 003°39'917.2
2017-Jun-17 09:00N 54°01' W 003°53'916.9
2017-Jun-17 08:30N 54°04' W 004°06'816.8
2017-Jun-17 08:00N 54°07' W 004°20'5 8.3
2017-Jun-17 07:23N 54°09' W 004°28'1 0.3
2017-Jun-17 04:47N 54°09' W 004°27'517.1
2017-Jun-17 04:30N 54°08' W 004°19'917.3
2017-Jun-17 04:00N 54°04' W 004°06'816.6
2017-Jun-17 03:30N 54°01' W 003°53'916.3
2017-Jun-17 02:55N 53°58' W 003°38'716.0
2017-Jun-17 02:30N 53°56' W 003°27'816.0
2017-Jun-17 01:59N 53°56' W 003°13'3 0.7
2017-Jun-16 21:43N 53°56' W 003°07'516.9
2017-Jun-16 21:26N 53°55' W 003°15'717.0
2017-Jun-16 21:00N 53°56' W 003°28'34 7.7
2017-Jun-16 16:31N 54°08' W 004°22'317.4
2017-Jun-16 16:20N 54°07' W 004°17'2617.1
2017-Jun-16 14:50N 53°58' W 003°37'1516.3
2017-Jun-16 13:53N 53°56' W 003°11'4 1.3
2017-Jun-16 10:42N 53°58' W 003°04'317.6
2017-Jun-16 10:30N 53°56' W 003°09'1017.9
2017-Jun-16 09:58N 53°55' W 003°26'37 7.0
2017-Jun-16 04:38N 54°09' W 004°25'417.5
2017-Jun-16 04:26N 54°07' W 004°20'1617.4
2017-Jun-16 03:31N 54°01' W 003°55'017.2
2017-Jun-16 03:30N 54°01' W 003°54'1616.8
2017-Jun-16 02:35N 53°56' W 003°30'116.5
2017-Jun-16 02:30N 53°56' W 003°28'816.2
2017-Jun-16 02:00N 53°56' W 003°14'4 1.0
2017-Jun-15 21:52N 53°57' W 003°07'617.4
2017-Jun-15 21:30N 53°55' W 003°17'817.0
2017-Jun-15 21:01N 53°56' W 003°32'917.4
2017-Jun-15 20:29N 53°59' W 003°46'23 5.9
2017-Jun-15 16:33N 54°08' W 004°22'217.5
2017-Jun-15 16:25N 54°08' W 004°18'3017.4
2017-Jun-15 14:41N 53°56' W 003°31'1116.7
2017-Jun-15 14:01N 53°56' W 003°12'815.5
2017-Jun-15 13:30N 53°59' W 003°00'3 1.1
2017-Jun-15 10:55N 53°57' W 003°04'818.5
2017-Jun-15 10:30N 53°55' W 003°16'917.2
2017-Jun-15 10:00N 53°56' W 003°31'917.8
2017-Jun-15 09:30N 53°59' W 003°45'24 4.8
2017-Jun-15 04:24N 54°09' W 004°23'717.7
2017-Jun-15 04:00N 54°05' W 004°12'1117.8
2017-Jun-15 03:23N 54°01' W 003°55'1617.6
2017-Jun-15 02:29N 53°56' W 003°29'1017.2
2017-Jun-15 01:54N 53°56' W 003°12'716.0
2017-Jun-15 01:29N 53°58' W 003°02'3 0.8
2017-Jun-14 21:34N 53°57' W 003°06'118.0
2017-Jun-14 21:30N 53°56' W 003°08'918.1
2017-Jun-14 21:00N 53°56' W 003°24'917.3
2017-Jun-14 20:30N 53°58' W 003°38'917.4
2017-Jun-14 20:00N 54°01' W 003°52'  
Track history (hours):
 
Tides and Currents Weather Stations Pressure Air Temp Water Temp Dewpoint Dewpoint Depression Visibility Wind Speed Wind Dir Waves Ship Positions

Ben-my-chree

Operator: The Isle of Man Steam Packet Co Ltd

Last reported at 2017-Jun-24 19:54 UTC. Time now 2017-Jun-25 08:40 UTC.
Position N 54°10' W 004°45'.

Length 120 m; draft 5 m.

Type: Passenger vessel. MMSI: 234983000.

Date/timePositionNaut miles runAvg speedWind from/ knotsBaromVisibWave heightAir tempDewpointWater temp
2017-Jun-24 19:54N 54°10' W 004°45'813.2
2017-Jun-24 19:17N 54°03' W 004°50'514.9
2017-Jun-24 18:55N 54°03' W 004°41'612.5
2017-Jun-24 18:27N 54°06' W 004°32'23 7.2
2017-Jun-24 15:16N 54°01' W 003°54'2417.9
2017-Jun-24 13:55N 53°56' W 003°14'7 2.0
2017-Jun-24 10:30N 53°58' W 003°03'1018.7
2017-Jun-24 09:57N 53°56' W 003°20'818.6
2017-Jun-24 09:30N 53°57' W 003°34'3 0.4
2017-Jun-24 02:19N 53°56' W 003°30'1018.6
2017-Jun-24 01:46N 53°56' W 003°13'519.6
2017-Jun-24 01:30N 53°58' W 003°04'0 0.1
2017-Jun-23 22:13N 53°58' W 003°04'2 8.3
2017-Jun-23 21:58N 53°57' W 003°07'815.7
2017-Jun-23 21:29N 53°56' W 003°20'918.1
2017-Jun-23 21:00N 53°57' W 003°34'33 7.4
2017-Jun-23 16:32N 54°09' W 004°26'317.3
2017-Jun-23 16:24N 54°08' W 004°22'1817.5
2017-Jun-23 15:24N 54°01' W 003°54'1517.5
2017-Jun-23 14:30N 53°56' W 003°30'14 3.5
2017-Jun-23 10:37N 53°56' W 003°07'217.5
2017-Jun-23 10:30N 53°56' W 003°10'917.2
2017-Jun-23 10:00N 53°56' W 003°25'917.5
2017-Jun-23 09:30N 53°58' W 003°39'27 5.1
2017-Jun-23 04:14N 54°08' W 004°22'1817.8
2017-Jun-23 03:13N 54°01' W 003°53'1518.0
2017-Jun-23 02:22N 53°56' W 003°29'1018.3
2017-Jun-23 01:48N 53°56' W 003°12'720.0
2017-Jun-23 01:28N 53°59' W 003°01'1 0.4
2017-Jun-22 21:25N 53°58' W 003°03'818.7
2017-Jun-22 20:59N 53°56' W 003°17'918.9
2017-Jun-22 20:30N 53°56' W 003°32'918.8
2017-Jun-22 20:00N 53°60' W 003°47'25 7.9
2017-Jun-22 16:46N 54°09' W 004°28'515.3
2017-Jun-22 16:27N 54°08' W 004°20'917.9
2017-Jun-22 15:57N 54°04' W 004°06'817.9
2017-Jun-22 15:30N 54°01' W 003°54'917.9
2017-Jun-22 14:59N 53°58' W 003°38'817.8
2017-Jun-22 14:30N 53°56' W 003°25'12 3.2
2017-Jun-22 10:37N 53°58' W 003°04'216.9
2017-Jun-22 10:29N 53°57' W 003°07'916.9
2017-Jun-22 09:58N 53°55' W 003°22'817.3
2017-Jun-22 09:30N 53°57' W 003°35'32 6.3
2017-Jun-22 04:26N 54°09' W 004°26'3417.6
2017-Jun-22 02:30N 53°55' W 003°34'1117.5
2017-Jun-22 01:53N 53°55' W 003°15'718.9
2017-Jun-22 01:30N 53°58' W 003°04'3 0.7
2017-Jun-21 21:23N 53°56' W 003°08'717.6
2017-Jun-21 21:00N 53°55' W 003°19'41 7.9
2017-Jun-21 15:52N 54°09' W 004°24'1418.2
2017-Jun-21 15:07N 54°03' W 004°03'618.5
2017-Jun-21 14:48N 54°01' W 003°53'1118.7
2017-Jun-21 14:13N 53°57' W 003°36'1518.5
2017-Jun-21 13:25N 53°56' W 003°11'11 5.0
2017-Jun-21 11:12N 54°02' W 002°55'713.7
2017-Jun-21 10:43N 53°58' W 003°04'315.9
2017-Jun-21 10:30N 53°56' W 003°09'916.6
2017-Jun-21 09:59N 53°55' W 003°24'816.3
2017-Jun-21 09:30N 53°57' W 003°37'12 1.8
2017-Jun-21 02:55N 54°02' W 003°56'1715.9
2017-Jun-21 01:52N 53°56' W 003°29'1015.5
2017-Jun-21 01:13N 53°56' W 003°12'315.6
2017-Jun-21 01:00N 53°57' W 003°07'8 3.0
2017-Jun-20 22:07N 54°02' W 002°55'714.4
2017-Jun-20 21:37N 53°57' W 003°05'216.0
2017-Jun-20 21:30N 53°56' W 003°08'916.3
2017-Jun-20 20:59N 53°55' W 003°22'816.2
2017-Jun-20 20:30N 53°57' W 003°35'816.9
2017-Jun-20 20:00N 53°60' W 003°48'24 5.7
2017-Jun-20 15:43N 54°09' W 004°26'1617.6
2017-Jun-20 14:47N 54°03' W 004°00'1417.7
2017-Jun-20 13:59N 53°58' W 003°38'917.9
2017-Jun-20 13:30N 53°55' W 003°24'918.4
2017-Jun-20 13:00N 53°56' W 003°08'917.8
2017-Jun-20 12:30N 54°02' W 002°56'1 0.6
2017-Jun-20 11:16N 54°02' W 002°55'0 0.0
2017-Jun-20 10:58N 54°02' W 002°55'7 9.2
2017-Jun-20 10:15N 53°58' W 003°04'416.0
2017-Jun-20 10:01N 53°56' W 003°09'816.6
2017-Jun-20 09:30N 53°55' W 003°23'816.7
2017-Jun-20 09:00N 53°57' W 003°37'817.1
2017-Jun-20 08:30N 54°00' W 003°50'917.3
2017-Jun-20 08:00N 54°04' W 004°04'15 6.3
2017-Jun-20 05:37N 54°09' W 004°28'1 6.2
2017-Jun-20 05:29N 54°09' W 004°27'816.5
2017-Jun-20 04:59N 54°07' W 004°14'916.4
2017-Jun-20 04:27N 54°03' W 003°60'916.6
2017-Jun-20 03:52N 53°59' W 003°45'816.7
2017-Jun-20 03:23N 53°56' W 003°32'716.8
2017-Jun-20 03:00N 53°56' W 003°21'916.8
2017-Jun-20 02:29N 53°57' W 003°06'816.8
2017-Jun-20 02:00N 54°02' W 002°56'0 0.1
2017-Jun-19 22:38N 54°02' W 002°55'1 5.2
2017-Jun-19 22:30N 54°02' W 002°56'815.1
2017-Jun-19 22:00N 53°57' W 003°06'816.5
2017-Jun-19 21:30N 53°55' W 003°19'816.4
2017-Jun-19 21:00N 53°56' W 003°33'917.1
2017-Jun-19 20:30N 53°60' W 003°46'917.3
2017-Jun-19 20:00N 54°02' W 004°01'15 4.6
2017-Jun-19 16:47N 54°09' W 004°24'517.8
2017-Jun-19 16:30N 54°07' W 004°16'1417.2
2017-Jun-19 15:43N 54°01' W 003°55'917.0
2017-Jun-19 15:13N 53°58' W 003°41'417.1
2017-Jun-19 15:00N 53°57' W 003°35'1716.5
2017-Jun-19 13:57N 53°57' W 003°06'816.4
2017-Jun-19 13:29N 54°02' W 002°56'0 0.2
2017-Jun-19 11:15N 54°02' W 002°55'714.2
2017-Jun-19 10:46N 53°58' W 003°04'516.2
2017-Jun-19 10:28N 53°56' W 003°12'817.0
2017-Jun-19 10:00N 53°55' W 003°25'816.7
2017-Jun-19 09:30N 53°58' W 003°39'917.1
2017-Jun-19 09:00N 54°00' W 003°53'816.9
2017-Jun-19 08:30N 54°03' W 004°06'14 6.4
2017-Jun-19 06:17N 54°09' W 004°28'0 0.0
2017-Jun-19 05:59N 54°09' W 004°28'0 0.0
2017-Jun-19 05:29N 54°09' W 004°28'0 0.0
2017-Jun-19 04:59N 54°09' W 004°28'4 7.4
2017-Jun-19 04:24N 54°08' W 004°21'917.5
2017-Jun-19 03:53N 54°04' W 004°07'717.3
2017-Jun-19 03:30N 54°02' W 003°56'1417.1
2017-Jun-19 02:41N 53°57' W 003°34'317.0
2017-Jun-19 02:30N 53°56' W 003°29'1017.0
2017-Jun-19 01:57N 53°56' W 003°13'817.5
2017-Jun-19 01:31N 53°59' W 003°01'5 1.7
2017-Jun-18 22:35N 54°02' W 002°55'0 0.0
2017-Jun-18 22:30N 54°02' W 002°55'811.6
2017-Jun-18 21:48N 53°57' W 003°06'516.2
2017-Jun-18 21:30N 53°56' W 003°14'816.8
2017-Jun-18 21:00N 53°56' W 003°28'816.8
2017-Jun-18 20:30N 53°59' W 003°41'916.9
2017-Jun-18 20:00N 54°01' W 003°55'816.8
2017-Jun-18 19:30N 54°05' W 004°08'816.8
2017-Jun-18 19:01N 54°07' W 004°22'4 6.9
2017-Jun-18 18:24N 54°09' W 004°28'0 0.0
2017-Jun-18 18:00N 54°09' W 004°28'0 0.2
2017-Jun-18 17:30N 54°09' W 004°28'816.0
2017-Jun-18 17:00N 54°07' W 004°15'917.6
2017-Jun-18 16:30N 54°03' W 004°01'917.1
2017-Jun-18 16:00N 54°00' W 003°48'917.2
2017-Jun-18 15:30N 53°57' W 003°34'816.5
2017-Jun-18 15:00N 53°56' W 003°20'1615.2
2017-Jun-18 13:58N 54°02' W 002°55'0 0.0
2017-Jun-18 11:17N 54°02' W 002°55'312.3
2017-Jun-18 11:00N 53°60' W 002°60'816.4
2017-Jun-18 10:30N 53°56' W 003°12'917.1
2017-Jun-18 10:00N 53°56' W 003°26'816.8
2017-Jun-18 09:30N 53°58' W 003°40'816.9
2017-Jun-18 09:00N 54°01' W 003°53'816.4
2017-Jun-18 08:30N 54°04' W 004°06'5 1.2
2017-Jun-18 04:09N 54°06' W 004°15'317.6
2017-Jun-18 03:58N 54°05' W 004°10'917.4
2017-Jun-18 03:27N 54°02' W 003°55'1117.0
2017-Jun-18 02:49N 53°58' W 003°38'516.8
2017-Jun-18 02:30N 53°56' W 003°30'1016.6
2017-Jun-18 01:53N 53°56' W 003°13'616.9
2017-Jun-18 01:30N 53°58' W 003°03'6 2.1
2017-Jun-17 22:37N 54°02' W 002°55'0 3.2
2017-Jun-17 22:28N 54°02' W 002°56'916.1
2017-Jun-17 21:56N 53°56' W 003°07'717.1
2017-Jun-17 21:30N 53°55' W 003°19'816.3
2017-Jun-17 21:00N 53°56' W 003°33'917.0
2017-Jun-17 20:30N 53°59' W 003°46'817.0
2017-Jun-17 20:00N 54°02' W 003°60'816.8
2017-Jun-17 19:30N 54°06' W 004°13'917.3
2017-Jun-17 19:00N 54°09' W 004°27'1 1.1
2017-Jun-17 18:13N 54°09' W 004°28'0 0.0
2017-Jun-17 17:58N 54°09' W 004°28'0 0.0
2017-Jun-17 17:28N 54°09' W 004°28'0 0.0
2017-Jun-17 16:58N 54°09' W 004°28'710.9
2017-Jun-17 16:18N 54°07' W 004°16'517.6
2017-Jun-17 16:00N 54°05' W 004°08'917.2
2017-Jun-17 15:29N 54°01' W 003°54'1116.9
2017-Jun-17 14:51N 53°58' W 003°37'616.5
2017-Jun-17 14:30N 53°56' W 003°28'1616.2
2017-Jun-17 13:31N 53°59' W 003°01'4 1.5
2017-Jun-17 10:37N 53°56' W 003°07'216.3
2017-Jun-17 10:30N 53°56' W 003°10'917.6
2017-Jun-17 10:00N 53°56' W 003°25'817.1
2017-Jun-17 09:30N 53°58' W 003°39'917.2
2017-Jun-17 09:00N 54°01' W 003°53'916.9
2017-Jun-17 08:30N 54°04' W 004°06'816.8
2017-Jun-17 08:00N 54°07' W 004°20'5 8.3
2017-Jun-17 07:23N 54°09' W 004°28'1 0.3
2017-Jun-17 04:47N 54°09' W 004°27'517.1
2017-Jun-17 04:30N 54°08' W 004°19'917.3
2017-Jun-17 04:00N 54°04' W 004°06'816.6
2017-Jun-17 03:30N 54°01' W 003°53'916.3
2017-Jun-17 02:55N 53°58' W 003°38'716.0
2017-Jun-17 02:30N 53°56' W 003°27'816.0
2017-Jun-17 01:59N 53°56' W 003°13'3 0.7
2017-Jun-16 21:43N 53°56' W 003°07'516.9
2017-Jun-16 21:26N 53°55' W 003°15'717.0
2017-Jun-16 21:00N 53°56' W 003°28'34 7.7
2017-Jun-16 16:31N 54°08' W 004°22'317.4
2017-Jun-16 16:20N 54°07' W 004°17'2617.1
2017-Jun-16 14:50N 53°58' W 003°37'1516.3
2017-Jun-16 13:53N 53°56' W 003°11'4 1.3
2017-Jun-16 10:42N 53°58' W 003°04'317.6
2017-Jun-16 10:30N 53°56' W 003°09'1017.9
2017-Jun-16 09:58N 53°55' W 003°26'37 7.0
2017-Jun-16 04:38N 54°09' W 004°25'417.5
2017-Jun-16 04:26N 54°07' W 004°20'1617.4
2017-Jun-16 03:31N 54°01' W 003°55'017.2
2017-Jun-16 03:30N 54°01' W 003°54'1616.8
2017-Jun-16 02:35N 53°56' W 003°30'116.5
2017-Jun-16 02:30N 53°56' W 003°28'816.2
2017-Jun-16 02:00N 53°56' W 003°14'4 1.0
2017-Jun-15 21:52N 53°57' W 003°07'617.4
2017-Jun-15 21:30N 53°55' W 003°17'817.0
2017-Jun-15 21:01N 53°56' W 003°32'917.4
2017-Jun-15 20:29N 53°59' W 003°46'23 5.9
2017-Jun-15 16:33N 54°08' W 004°22'217.5
2017-Jun-15 16:25N 54°08' W 004°18'3017.4
2017-Jun-15 14:41N 53°56' W 003°31'1116.7
2017-Jun-15 14:01N 53°56' W 003°12'815.5
2017-Jun-15 13:30N 53°59' W 003°00'3 1.1
2017-Jun-15 10:55N 53°57' W 003°04'818.5
2017-Jun-15 10:30N 53°55' W 003°16'917.2
2017-Jun-15 10:00N 53°56' W 003°31'917.8
2017-Jun-15 09:30N 53°59' W 003°45'24 4.8
2017-Jun-15 04:24N 54°09' W 004°23'717.7
2017-Jun-15 04:00N 54°05' W 004°12'1117.8
2017-Jun-15 03:23N 54°01' W 003°55'1617.6
2017-Jun-15 02:29N 53°56' W 003°29'1017.2
2017-Jun-15 01:54N 53°56' W 003°12'716.0
2017-Jun-15 01:29N 53°58' W 003°02'3 0.8
2017-Jun-14 21:34N 53°57' W 003°06'118.0
2017-Jun-14 21:30N 53°56' W 003°08'918.1
2017-Jun-14 21:00N 53°56' W 003°24'917.3
2017-Jun-14 20:30N 53°58' W 003°38'917.4
2017-Jun-14 20:00N 54°01' W 003°52'  

Dump ship's entire track history